Dawson, Yukon Territory

11:12 AM PDT on August 01, 2015 (GMT -0700)
Dawson | | Change Station
CLOSE
Current Station
Airport
Location: Dawson,
Elevation: 1214 ft
Nearby Weather Stations

Elev 1214 ft 64.04 °N, 139.13 °W | Updated 12 minutes ago

Mostly Cloudy
Mostly Cloudy
54 °F
Feels Like 54 °F
N
0
Wind Variable Wind from North

Today is forecast to be nearly the same temperature as yesterday.

Today
High -- | Low -- °F
--% Chance of Precip.
Yesterday
High -- | Low -- °F
Precip. -- in
5:24 AM 11:19 PM
Full, 98% visible
Pressure 30.08 in
Visibility 20.0 miles
Clouds Mostly Cloudy 23000 ft
Dew Point 46 °F
Humidity 77%
Rainfall 0.00 in
Snow Depth Not available.
UV 2 out of 12
Pollen Not available.
Air Quality Not available.
Flu Activity Not available.
METAR CYDA 011800Z 00000KT 20SM BKN230 12/08 A3005 RMK CI7 FU SLP186

More Conditions Fewer Conditions

Pressure 30.08 in
Visibility 20.0 miles
Clouds Mostly Cloudy 23000 ft
Dew Point 46 °F
Humidity 77%
Rainfall 0.00 in
Snow Depth Not available.
UV 2 out of 12
Pollen Not available.
Air Quality Not available.
Flu Activity Not available.
METAR CYDA 011800Z 00000KT 20SM BKN230 12/08 A3005 RMK CI7 FU SLP186

More Conditions Fewer Conditions

10-Day Weather Forecast

×

Almanac

Astronomy

Aug. 01, 2015 Rise Set
Actual Time
Civil Twilight
Nautical Twilight
Astronomical Twilight
Moon
Length of Visible Light
Length of Day
Tomorrow will be .
, % of the Moon is Illuminated

Today's Extremes

Country Highs Country Lows

Community

WunderPhotos

Upload Photos

1,843,012 photos uploaded!

WunderBlogs® & News

Nearby

Air Quality

  Air Quality AQ Index Pollutant
Not available.

Snow Depth

Station Depth Elevation

Earthquake Activity

City Distance Mag. Time & Date
Minimum magnitude displayed is 2.5.

Coastal Water Temperatures

Place Temperature

Stations

Nearby Weather Stations

Station Location Temp. Windchill Dew Point Humidity Wind Precip. Elev Updated Type